Nearby METAR Reports


Data Updates Approximately Every Four Hours

METAR is the international standard code format for hourly surface weather observations which is analogous to the SA coding currently used in the US. The acronym roughly translates from French as Aviation Routine Weather Report. SPECI is merely the code name given to METAR formatted products which are issued on a special non-routine basis as dictated by changing meteorological conditions. The SPECI acronym roughly translates as Aviation Selected Special Weather Report.

KSLH - Cheboygan, Michigan, USA
Distance from station: W 9mi, 14km
Updated: 12/15/2018 3:15pm
Clear
Clear
 Wind from NE
Wind: NE 3 mph , 6 km/h
Temperature: 39°F , 4°C
Dew Point: 32°F , 0°C
Humidity: 75%
Barometer: 30.20 inHg , 1022.7 hPa
Clouds: Clear
Visibility: 10 miles , 16 km
2018/12/15 20:15 KSLH 152015Z AUTO 05003KT 10SM CLR 04/00 A3020 RMK AO2 T00420001
KMCD - Mackinac Island, Michigan, USA
Distance from station: NW 19mi, 31km
Updated: 12/15/2018 3:15pm
Clear
Clear
 Wind from ESE
Wind: ESE 7 mph , 11 km/h
Temperature: 39°F , 4°C
Wind Chill: 34°F , 1°C
Dew Point: 27°F , -3°C
Humidity: 61%
Barometer: 30.20 inHg , 1022.7 hPa
Clouds: Clear
Visibility: 10 miles , 16 km
2018/12/15 20:15 KMCD 152015Z AUTO 12006KT 10SM CLR 04/M03 A3020 RMK AO2 T00351026
 
KPLN - Pellston, Michigan, USA
Distance from station: WSW 24mi, 38km
Updated: 12/15/2018 2:54pm
Clear
Clear
 Wind from SE
Wind: SE 5 mph , 7 km/h
Temperature: 41°F , 5°C
Wind Chill: 38°F , 3°C
Dew Point: 30°F , -1°C
Humidity: 66%
Barometer: 30.20 inHg , 1022.7 hPa
Clouds: Clear
Visibility: 10 miles , 16 km
2018/12/15 19:54 KPLN 151954Z AUTO 13004KT 10SM CLR 05/M01 A3020 RMK AO2 SLP235 T00501011
KPZQ - Rogers City, Michigan, USA
Distance from station: SE 31mi, 50km
Updated: 12/15/2018 3:15pm
Clear
Clear
 Wind from ENE
Wind: ENE 5 mph , 7 km/h
Temperature: 39°F , 4°C
Wind Chill: 35°F , 2°C
Dew Point: 34°F , 1°C
Humidity: 81%
Barometer: 30.22 inHg , 1023.4 hPa
Clouds: Clear
Visibility: 10 miles , 16 km
2018/12/15 20:15 KPZQ 152015Z AUTO 06004KT 10SM CLR 04/01 A3022 RMK AO2 T00400006
 
KMGN - Harbor Springs, Michigan, USA
Distance from station: WSW 32mi, 52km
Updated: 12/15/2018 3:15pm
Clear
Clear
 Wind from ENE
Wind: ENE 8 mph , 13 km/h
Temperature: 41°F , 5°C
Wind Chill: 36°F , 2°C
Dew Point: 30°F , -1°C
Humidity: 66%
Barometer: 30.18 inHg , 1022 hPa
Clouds: Clear
Visibility: 10 miles , 16 km
2018/12/15 20:15 KMGN 152015Z AUTO 06007KT 10SM CLR 05/M01 A3018 RMK AO2 T00551015
KDRM - Drummond Is, Michigan, USA
Distance from station: NE 36mi, 59km
Updated: 12/15/2018 3:15pm
Clear
Clear
 Wind from calm
Wind: Calm
Temperature: 37°F , 3°C
Dew Point: 32°F , 0°C
Humidity: 81%
Barometer: 30.20 inHg , 1022.7 hPa
Clouds: Clear
Visibility: 10 miles , 16 km
2018/12/15 20:15 KDRM 152015Z AUTO 00000KT 10SM CLR 03/00 A3020 RMK AO2 T00301001
 
KCIU - Chippewa Intl, Michigan, USA
Distance from station: N 41mi, 66km
Updated: 12/15/2018 2:56pm
Clear
Clear
 Wind from SSE
Wind: SSE 8 mph , 13 km/h
Temperature: 37°F , 3°C
Wind Chill: 31°F , -1°C
Dew Point: 30°F , -1°C
Humidity: 75%
Barometer: 30.20 inHg , 1022.7 hPa
Clouds: Clear
Visibility: 10 miles , 16 km
2018/12/15 19:56 KCIU 151956Z AUTO 15007KT 10SM CLR 03/M01 A3020 RMK AO2 SLP252 T00331006
KGLR - Gaylord, Michigan, USA
Distance from station: SSW 48mi, 77km
Updated: 12/15/2018 2:53pm
Clear
Clear
 Wind from NE
Wind: NE 5 mph , 7 km/h
Temperature: 41°F , 5°C
Wind Chill: 38°F , 3°C
Dew Point: 27°F , -3°C
Humidity: 57%
Barometer: 30.16 inHg , 1021.3 hPa
Clouds: Clear
Visibility: 10 miles , 16 km
2018/12/15 19:53 KGLR 151953Z AUTO 05004KT 10SM CLR 05/M03 A3016 RMK AO2 SLP229 T00501028 TSNO
 
KCVX - Charlevoix, Michigan, USA
Distance from station: WSW 52mi, 83km
Updated: 12/15/2018 3:15pm
Clear
Clear
 Wind from W
Wind: W 7 mph , 11 km/h
Temperature: 43°F , 6°C
Wind Chill: 39°F , 4°C
Dew Point: 34°F , 1°C
Humidity: 71%
Barometer: 30.22 inHg , 1023.4 hPa
Clouds: Clear
Visibility: 10 miles , 16 km
2018/12/15 20:15 KCVX 152015Z AUTO 27006KT 10SM CLR 06/01 A3022 RMK AO2 T00550013
KANJ - Sault Ste Marie, Michigan, USA
Distance from station: N 56mi, 89km
Updated: 12/15/2018 2:55pm
Clear
Clear
 Wind from calm
Wind: Calm
Temperature: 37°F , 3°C
Dew Point: 32°F , 0°C
Humidity: 81%
Barometer: 30.19 inHg , 1022.4 hPa
Clouds: Clear
Visibility: 10 miles , 16 km
2018/12/15 19:55 KANJ 151955Z AUTO 00000KT 10SM CLR 03/00 A3019 RMK AO2 SLP231 T00330000
 
KAPN - Alpena, Michigan, USA
Distance from station: SE 56mi, 89km
Updated: 12/15/2018 2:54pm
Clear
Clear
 Wind from ESE
Wind: ESE 5 mph , 7 km/h
Temperature: 41°F , 5°C
Wind Chill: 38°F , 3°C
Dew Point: 34°F , 1°C
Humidity: 76%
Barometer: 30.21 inHg , 1023 hPa
Clouds: Clear
Visibility: 10 miles , 16 km
2018/12/15 19:54 KAPN 151954Z AUTO 11004KT 10SM CLR 05/01 A3021 RMK AO2 SLP236 T00500006
CYAM - Sault Ste Marie, Ontario, Canada
Distance from station: N 56mi, 90km
Updated: 12/15/2018 3:00pm
Partly cloudy
Partly cloudy
 Wind from ENE
Wind: ENE 2 mph , 4 km/h
Temperature: 37°F , 3°C
Dew Point: 32°F , 0°C
Humidity: 81%
Barometer: 30.20 inHg , 1022.7 hPa
Clouds: Partly cloudy
Visibility: 10 miles , 16 km
Cloud details: Few Clouds 500 ft
Few Clouds 16000 ft
Partly cloudy 20000 ft
2018/12/15 20:00 CYAM 152000Z 06002KT 10SM FEW005 FEW160 SCT200 03/M00 A3020 RMK SF1AS1CI1 SLP237
 
KSJX - Beaver Island, Michigan, USA
Distance from station: W 60mi, 96km
Updated: 12/15/2018 3:17pm
Clear
Clear
 Wind from E
Wind: E 5 mph , 7 km/h
Temperature: 41°F , 5°C
Wind Chill: 38°F , 3°C
Dew Point: 32°F , 0°C
Humidity: 70%
Barometer: 30.19 inHg , 1022.4 hPa
Clouds: Clear
Visibility: 10 miles , 16 km
2018/12/15 20:17 KSJX 152017Z AUTO 10004KT 10SM CLR 05/00 A3019 RMK AO2 T00451005
KACB - Bellaire, Michigan, USA
Distance from station: SW 63mi, 102km
Updated: 12/15/2018 3:16pm
Clear
Clear
 Wind from S
Wind: S 3 mph , 6 km/h
Temperature: 45°F , 7°C
Dew Point: 30°F , -1°C
Humidity: 57%
Barometer: 30.18 inHg , 1022 hPa
Clouds: Clear
Visibility: 10 miles , 16 km
2018/12/15 20:16 KACB 152016Z AUTO 18003KT 10SM CLR 07/M01 A3018 RMK AO2 T00691013
 
CWNL - Great Duck Island, Ontario, Canada
Distance from station: E 66mi, 106km
Updated: 12/15/2018 2:00pm
NOT Current

 Wind from SE
Wind: SE 6 mph , 9 km/h
Temperature: 39°F , 4°C
Wind Chill: 35°F , 2°C
Dew Point: 32°F , 0°C
Humidity: 75%
2018/12/15 19:00 CWNL 151900Z AUTO 14005KT 04/M00 RMK AO1 SLP235 T00391001 58008
KERY - Newberry, Michigan, USA
Distance from station: NW 69mi, 112km
Updated: 12/15/2018 3:15pm
Clear
Clear
 Wind from calm
Wind: Calm
Temperature: 43°F , 6°C
Dew Point: 30°F , -1°C
Humidity: 61%
Barometer: 30.18 inHg , 1022 hPa
Clouds: Clear
Visibility: 7 miles , 11 km
2018/12/15 20:15 KERY 152015Z AUTO 00000KT 7SM CLR 06/M01 A3018 RMK AO2 T00611015
 
KGOV - Grayling Af, Michigan, USA
Distance from station: SSW 70mi, 113km
Updated: 12/15/2018 2:58pm
Clear
Clear
 Wind from calm
Wind: Calm
Temperature: 41°F , 5°C
Dew Point: 30°F , -1°C
Humidity: 66%
Barometer: 30.16 inHg , 1021.3 hPa
Clouds: Clear
Visibility: 10 miles , 16 km
2018/12/15 19:58 KGOV 151958Z AUTO 00000KT 10SM CLR 05/M01 A3016 RMK AO2 SLP234 T00471012 PNO $